La Tuque, Canada
Current Conditions -  °F | °C
As of 9:24 PM on Saturday 22 Nov 2014 (Local Time) from CYOY Reporting Station
Light Snow Light Snow  
Wind Chill: 22°   Ceiling: 700
Heat Index: 28°   Visibility: 1mi
Dew Point: 27°   Wind: 6mph
Humidity: 93%   Direction: 270°W
Pressure: 29.8"   Gusts: NA
Location:  47.44°N, 72.78°W
Report Text: CYOY 230224Z AUTO 27005KT 1SM -SN OVC007 M02/M03 A2980
Loading
Personal Weather Stations






























Interactive Weather Map New forecast layout! Learn more

10-Day Weather Forecast

Advertisements
Track Severe Weather on mobile